Monday, October 16, 2017, 10:44 PM CDT
Back to Local

KBTR, Baton Rouge Metro Ryan Field

Location: Baton Rouge, LA, United States Lat: 30.533
Local Time: 10:44 PM CDT ( 3:44 GMT) Lon: -91.15
Time Zone: US/Central Elev: 68 ft

Show me the last for .
Show Decoded

2017-10-16 21:53 METAR KBTR 170253Z 01004KT 10SM CLR 15/09 A3021 RMK AO2 SLP230 T01500089 51022 =
2017-10-16 20:53 METAR KBTR 170153Z 00000KT 10SM CLR 16/09 A3020 RMK AO2 SLP225 T01610094 =
2017-10-16 19:53 METAR KBTR 170053Z 36004KT 10SM CLR 17/09 A3017 RMK AO2 SLP216 T01720094 =
2017-10-16 18:53 METAR KBTR 162353Z 01006KT 10SM CLR 19/08 A3015 RMK AO2 SLP209 T01890078 10239
                 20189 53014 =
2017-10-16 17:53 METAR KBTR 162253Z 36009KT 10SM CLR 22/07 A3012 RMK AO2 SLP197 T02170072 =
2017-10-16 16:53 METAR KBTR 162153Z 35008KT 10SM CLR 23/07 A3011 RMK AO2 SLP194 T02280072 =
2017-10-16 15:53 METAR KBTR 162053Z 35010KT 10SM CLR 24/06 A3011 RMK AO2 SLP195 T02390056 55021 =
2017-10-16 14:53 METAR KBTR 161953Z 36009KT 10SM CLR 23/06 A3011 RMK AO2 SLP193 T02330061 =
2017-10-16 13:53 METAR KBTR 161853Z 01012G20KT 10SM CLR 23/06 A3013 RMK AO2 SLP202 T02280061 =
2017-10-16 12:53 METAR KBTR 161753Z 35013G18KT 10SM CLR 22/08 A3017 RMK AO2 SLP215 T02170083
                 10222 20156 58016 =
2017-10-16 11:53 METAR KBTR 161653Z 01014G20KT 10SM CLR 21/08 A3020 RMK AO2 SLP226 T02060078 =
2017-10-16 10:53 METAR KBTR 161553Z 36013G18KT 10SM CLR 19/09 A3022 RMK AO2 SLP231 T01890089 =
2017-10-16 09:53 METAR KBTR 161453Z 01011G17KT 10SM CLR 18/10 A3022 RMK AO2 SLP232 T01780100
                 53020 =
2017-10-16 08:53 METAR KBTR 161353Z 02011G19KT 10SM CLR 17/11 A3020 RMK AO2 SLP227 T01670111 =
2017-10-16 07:53 METAR KBTR 161253Z 36012G19KT 10SM FEW080 SCT120 16/12 A3017 RMK AO2 SLP216
                 T01560117 =
2017-10-16 06:53 METAR KBTR 161153Z COR 01011G18KT 10SM BKN080 16/12 A3016 RMK AO2 SLP212 60018
                 70034 T01560122 10206 20156 53018 =
2017-10-16 05:53 METAR KBTR 161053Z 36010KT 10SM FEW065 SCT095 BKN110 16/13 A3014 RMK AO2 LTG
                 DSNT E AND SE SLP204 T01560128 =
2017-10-16 04:53 METAR KBTR 160953Z 01008G17KT 10SM FEW055 BKN080 OVC100 16/13 A3012 RMK AO2
                 RAE30 TSB13E28 SLP197 P0016 T01610133 =
2017-10-16 04:34 METAR KBTR 160934Z AUTO 01007KT 10SM SCT038 OVC055 16/14 A3010 RMK AO2 RAE30
                 TSB13E28 P0016 T01610139 =
2017-10-16 04:19 METAR KBTR 160919Z AUTO 36007KT 4SM TSRA BR BKN036 OVC060 16/14 A3011 RMK AO2
                 TSB13 P0015 T01610144 =
2017-10-16 04:07 METAR KBTR 160907Z AUTO 34008KT 4SM +RA BR SCT016 OVC036 17/14 A3011 RMK AO2
                 P0002 T01670144 =
2017-10-16 03:53 METAR KBTR 160853Z AUTO 35009G16KT 10SM -RA BKN017 OVC036 17/14 A3011 RMK AO2
                 RAB25E33B46 SLP194 P0000 60002 T01720144 56005 =
2017-10-16 03:44 METAR KBTR 160844Z AUTO 34009KT 10SM BKN017 OVC035 18/14 A3011 RMK AO2 RAB25E33
                 P0000 T01780144 =
2017-10-16 02:53 METAR KBTR 160753Z AUTO 34007KT 10SM OVC035 19/16 A3011 RMK AO2 SLP195 T01940161
                 =
2017-10-16 01:53 METAR KBTR 160653Z AUTO 36007KT 10SM OVC034 20/17 A3011 RMK AO2 RAB32E46 SLP196
                 P0002 T02000172 =
2017-10-16 00:53 METAR KBTR 160553Z AUTO 36009G19KT 10SM SCT030 OVC037 21/18 A3012 RMK AO2 RAE38
                 SLP199 P0016 60016 T02060178 10272 20206 403170206 51018 =
2017-10-16 00:45 METAR KBTR 160545Z AUTO 01009KT 10SM BKN030 OVC037 21/18 A3012 RMK AO2 RAE38
                 P0016 T02060183 =
2017-10-16 00:29 METAR KBTR 160529Z AUTO 34011G17KT 6SM -RA BR OVC026 21/19 A3012 RMK AO2 P0016
                 T02060189 =
2017-10-16 00:18 METAR KBTR 160518Z AUTO 36009G16KT 2SM +RA BR FEW019 OVC026 21/19 A3012 =
2017-10-15 23:53 METAR KBTR 160453Z 36009G20KT 10SM -RA FEW015 BKN019 OVC035 22/19 A3012 RMK AO2
                 RAB23 SLP197 P0000 T02170194 =
2017-10-15 23:45 METAR KBTR 160445Z 36014G18KT 10SM -RA SCT017 BKN021 OVC033 22/20 A3011 RMK AO2
                 LTG DSNT E RAB23 P0000 T02220200 =
2017-10-15 23:33 METAR KBTR 160433Z 35013G20KT 10SM -RA FEW013 OVC033 22/20 A3010 RMK AO2 LTG
                 DSNT E RAB23 P0000 T02220200 =
2017-10-15 23:17 METAR KBTR 160417Z 35014G20KT 10SM SCT014 BKN027 OVC034 23/21 A3010 RMK AO2
                 T02330206 =
2017-10-15 23:02 METAR KBTR 160402Z 34010KT 10SM BKN014 OVC025 24/22 A3010 RMK AO2 T02440217 =
2017-10-15 22:53 METAR KBTR 160353Z 35009G16KT 10SM BKN015 OVC025 25/22 A3009 RMK AO2 SLP187
                 T02500222 =

Support USWX by starting your Amazon purchase here.